Moe, South Dakota
Current Conditions -  °F | °C
As of 6:55 AM on Wednesday 26 Nov 2014 (Local Time) from KORC Reporting Station
Light Snow Light Snow  
Wind Chill: 21°   Ceiling: 500
Heat Index: 30°   Visibility: 1.7mi
Dew Point: 27°   Wind: 10mph
Humidity: 86%   Direction: 360°N
Pressure: 29.92"   Gusts: NA
Location:  43.1282°N, 96.5674°W
Report Text: KORC 261255Z AUTO 36009KT 1 3/4SM -SN OVC005 M01/M03 A2992 RMK AO2 VIS 1 1/4V2 1/2
Loading
Personal Weather Stations






























Interactive Weather Map New forecast layout! Learn more

10-Day Weather Forecast

Advertisements
Track Severe Weather on mobile